sensor_id;sensor_type;location;lat;lon;timestamp;pressure;altitude;pressure_sealevel;temperature;humidity
49461;BME280;35355;49.198;-0.368;2023-04-30T00:00:46;101524.00;;;13.31;67.19
49461;BME280;35355;49.198;-0.368;2023-04-30T00:03:11;101522.34;;;13.30;66.97
49461;BME280;35355;49.198;-0.368;2023-04-30T00:05:36;101530.00;;;13.28;66.84
49461;BME280;35355;49.198;-0.368;2023-04-30T00:08:03;101526.97;;;13.25;67.08
49461;BME280;35355;49.198;-0.368;2023-04-30T00:10:29;101524.22;;;13.25;66.80
49461;BME280;35355;49.198;-0.368;2023-04-30T00:12:54;101534.59;;;13.23;66.57
49461;BME280;35355;49.198;-0.368;2023-04-30T00:15:21;101528.81;;;13.19;66.36
49461;BME280;35355;49.198;-0.368;2023-04-30T00:17:46;101525.28;;;13.19;66.50
49461;BME280;35355;49.198;-0.368;2023-04-30T00:20:12;101524.16;;;13.20;66.34
49461;BME280;35355;49.198;-0.368;2023-04-30T00:22:37;101525.00;;;13.20;66.23
49461;BME280;35355;49.198;-0.368;2023-04-30T00:25:03;101523.34;;;13.19;66.50
49461;BME280;35355;49.198;-0.368;2023-04-30T00:27:28;101526.34;;;13.18;66.18
49461;BME280;35355;49.198;-0.368;2023-04-30T00:29:55;101522.53;;;13.19;66.02
49461;BME280;35355;49.198;-0.368;2023-04-30T00:32:21;101524.16;;;13.20;65.84
49461;BME280;35355;49.198;-0.368;2023-04-30T00:34:46;101517.59;;;13.21;65.71
49461;BME280;35355;49.198;-0.368;2023-04-30T00:37:11;101519.53;;;13.20;66.01
49461;BME280;35355;49.198;-0.368;2023-04-30T00:39:37;101521.69;;;13.18;65.91
49461;BME280;35355;49.198;-0.368;2023-04-30T00:42:02;101522.47;;;13.13;65.82
49461;BME280;35355;49.198;-0.368;2023-04-30T00:44:28;101520.31;;;13.15;65.58
49461;BME280;35355;49.198;-0.368;2023-04-30T00:46:53;101523.06;;;13.15;65.57
49461;BME280;35355;49.198;-0.368;2023-04-30T00:49:18;101517.81;;;13.14;65.65
49461;BME280;35355;49.198;-0.368;2023-04-30T00:51:44;101517.81;;;13.14;65.78
49461;BME280;35355;49.198;-0.368;2023-04-30T00:54:10;101513.09;;;13.09;65.59
49461;BME280;35355;49.198;-0.368;2023-04-30T00:56:35;101509.81;;;13.07;65.66
49461;BME280;35355;49.198;-0.368;2023-04-30T00:59:00;101519.94;;;13.07;65.30
49461;BME280;35355;49.198;-0.368;2023-04-30T01:01:27;101516.94;;;13.08;65.57
49461;BME280;35355;49.198;-0.368;2023-04-30T01:03:56;101505.97;;;13.08;65.06
49461;BME280;35355;49.198;-0.368;2023-04-30T01:06:21;101513.34;;;13.08;65.48
49461;BME280;35355;49.198;-0.368;2023-04-30T01:08:47;101508.13;;;13.06;65.43
49461;BME280;35355;49.198;-0.368;2023-04-30T01:17:16;101503.69;;;13.00;65.22
49461;BME280;35355;49.198;-0.368;2023-04-30T01:19:45;101499.03;;;13.01;65.17
49461;BME280;35355;49.198;-0.368;2023-04-30T01:30:02;101499.81;;;12.96;65.06
49461;BME280;35355;49.198;-0.368;2023-04-30T01:32:28;101504.75;;;12.94;65.00
49461;BME280;35355;49.198;-0.368;2023-04-30T01:34:54;101511.28;;;12.93;65.07
49461;BME280;35355;49.198;-0.368;2023-04-30T01:40:22;101507.75;;;12.92;65.24
49461;BME280;35355;49.198;-0.368;2023-04-30T01:51:39;101508.00;;;12.91;64.90
49461;BME280;35355;49.198;-0.368;2023-04-30T01:54:24;101510.75;;;12.91;65.10
49461;BME280;35355;49.198;-0.368;2023-04-30T01:57:25;101509.94;;;12.90;64.99
49461;BME280;35355;49.198;-0.368;2023-04-30T01:59:52;101503.06;;;12.93;64.71
49461;BME280;35355;49.198;-0.368;2023-04-30T02:02:17;101505.25;;;12.91;64.59
49461;BME280;35355;49.198;-0.368;2023-04-30T02:04:42;101501.94;;;12.89;64.69
49461;BME280;35355;49.198;-0.368;2023-04-30T02:07:08;101509.59;;;12.87;64.86
49461;BME280;35355;49.198;-0.368;2023-04-30T02:09:33;101506.03;;;12.86;64.99
49461;BME280;35355;49.198;-0.368;2023-04-30T02:11:58;101505.19;;;12.86;64.69
49461;BME280;35355;49.198;-0.368;2023-04-30T02:14:24;101502.44;;;12.86;64.69
49461;BME280;35355;49.198;-0.368;2023-04-30T02:16:50;101500.81;;;12.85;64.79
49461;BME280;35355;49.198;-0.368;2023-04-30T02:19:15;101506.56;;;12.83;64.70
49461;BME280;35355;49.198;-0.368;2023-04-30T02:21:40;101495.00;;;12.81;64.61
49461;BME280;35355;49.198;-0.368;2023-04-30T02:24:06;101496.94;;;12.80;64.89
49461;BME280;35355;49.198;-0.368;2023-04-30T02:26:31;101508.16;;;12.79;64.73
49461;BME280;35355;49.198;-0.368;2023-04-30T02:28:56;101501.84;;;12.78;64.63
49461;BME280;35355;49.198;-0.368;2023-04-30T02:31:22;101499.13;;;12.78;64.59
49461;BME280;35355;49.198;-0.368;2023-04-30T02:33:47;101502.34;;;12.75;64.77
49461;BME280;35355;49.198;-0.368;2023-04-30T02:36:13;101500.44;;;12.76;64.67
49461;BME280;35355;49.198;-0.368;2023-04-30T02:38:38;101502.34;;;12.75;64.70
49461;BME280;35355;49.198;-0.368;2023-04-30T02:41:03;101510.81;;;12.74;64.78
49461;BME280;35355;49.198;-0.368;2023-04-30T02:43:29;101507.78;;;12.70;64.78
49461;BME280;35355;49.198;-0.368;2023-04-30T02:45:54;101505.31;;;12.69;64.97
49461;BME280;35355;49.198;-0.368;2023-04-30T02:48:19;101505.56;;;12.67;64.52
49461;BME280;35355;49.198;-0.368;2023-04-30T02:50:45;101511.03;;;12.67;64.67
49461;BME280;35355;49.198;-0.368;2023-04-30T02:53:10;101502.22;;;12.65;64.75
49461;BME280;35355;49.198;-0.368;2023-04-30T02:55:35;101498.94;;;12.63;64.68
49461;BME280;35355;49.198;-0.368;2023-04-30T02:58:01;101501.13;;;12.61;64.94
49461;BME280;35355;49.198;-0.368;2023-04-30T03:00:26;101499.44;;;12.60;65.15
49461;BME280;35355;49.198;-0.368;2023-04-30T03:02:51;101498.63;;;12.59;65.01
49461;BME280;35355;49.198;-0.368;2023-04-30T03:05:17;101499.16;;;12.56;64.77
49461;BME280;35355;49.198;-0.368;2023-04-30T03:07:42;101494.50;;;12.57;65.06
49461;BME280;35355;49.198;-0.368;2023-04-30T03:10:08;101498.31;;;12.56;64.83
49461;BME280;35355;49.198;-0.368;2023-04-30T03:12:34;101493.91;;;12.55;64.99
49461;BME280;35355;49.198;-0.368;2023-04-30T03:14:59;101498.81;;;12.53;64.69
49461;BME280;35355;49.198;-0.368;2023-04-30T03:17:24;101497.16;;;12.52;64.63
49461;BME280;35355;49.198;-0.368;2023-04-30T03:19:50;101504.56;;;12.51;64.60
49461;BME280;35355;49.198;-0.368;2023-04-30T03:22:15;101493.03;;;12.49;64.90
49461;BME280;35355;49.198;-0.368;2023-04-30T03:24:43;101494.38;;;12.46;64.53
49461;BME280;35355;49.198;-0.368;2023-04-30T03:27:09;101491.03;;;12.44;64.83
49461;BME280;35355;49.198;-0.368;2023-04-30T03:29:34;101489.66;;;12.42;65.17
49461;BME280;35355;49.198;-0.368;2023-04-30T03:31:59;101488.00;;;12.41;64.89
49461;BME280;35355;49.198;-0.368;2023-04-30T03:34:25;101492.91;;;12.39;65.02
49461;BME280;35355;49.198;-0.368;2023-04-30T03:36:50;101490.69;;;12.36;64.98
49461;BME280;35355;49.198;-0.368;2023-04-30T03:39:15;101490.97;;;12.34;65.19
49461;BME280;35355;49.198;-0.368;2023-04-30T03:41:41;101491.44;;;12.31;65.14
49461;BME280;35355;49.198;-0.368;2023-04-30T03:44:06;101490.88;;;12.29;65.07
49461;BME280;35355;49.198;-0.368;2023-04-30T03:46:38;101486.97;;;12.25;65.19
49461;BME280;35355;49.198;-0.368;2023-04-30T03:49:04;101495.19;;;12.25;65.03
49461;BME280;35355;49.198;-0.368;2023-04-30T03:51:29;101497.38;;;12.23;65.02
49461;BME280;35355;49.198;-0.368;2023-04-30T03:53:55;101493.22;;;12.20;65.17
49461;BME280;35355;49.198;-0.368;2023-04-30T03:56:20;101498.97;;;12.19;65.47
49461;BME280;35355;49.198;-0.368;2023-04-30T03:58:45;101496.72;;;12.16;65.29
49461;BME280;35355;49.198;-0.368;2023-04-30T04:01:11;101496.97;;;12.14;64.93
49461;BME280;35355;49.198;-0.368;2023-04-30T04:03:36;101503.53;;;12.13;65.54
49461;BME280;35355;49.198;-0.368;2023-04-30T04:06:02;101494.50;;;12.13;65.22
49461;BME280;35355;49.198;-0.368;2023-04-30T04:08:29;101501.03;;;12.11;65.27
49461;BME280;35355;49.198;-0.368;2023-04-30T04:10:55;101499.38;;;12.10;65.11
49461;BME280;35355;49.198;-0.368;2023-04-30T04:13:20;101498.81;;;12.08;65.06
49461;BME280;35355;49.198;-0.368;2023-04-30T04:15:46;101496.91;;;12.09;65.51
49461;BME280;35355;49.198;-0.368;2023-04-30T04:18:11;101495.53;;;12.06;65.32
49461;BME280;35355;49.198;-0.368;2023-04-30T04:20:36;101495.53;;;12.06;65.63
49461;BME280;35355;49.198;-0.368;2023-04-30T04:23:02;101491.38;;;12.04;65.26
49461;BME280;35355;49.198;-0.368;2023-04-30T04:25:27;101501.50;;;12.03;65.46
49461;BME280;35355;49.198;-0.368;2023-04-30T04:27:52;101505.06;;;12.04;65.26
49461;BME280;35355;49.198;-0.368;2023-04-30T04:30:18;101499.84;;;12.02;65.58
49461;BME280;35355;49.198;-0.368;2023-04-30T04:32:43;101502.81;;;12.01;65.39
49461;BME280;35355;49.198;-0.368;2023-04-30T04:35:15;101506.38;;;12.01;65.30
49461;BME280;35355;49.198;-0.368;2023-04-30T04:37:40;101511.28;;;11.99;65.82
49461;BME280;35355;49.198;-0.368;2023-04-30T04:40:06;101512.38;;;11.98;65.41
49461;BME280;35355;49.198;-0.368;2023-04-30T04:42:32;101520.00;;;11.96;65.78
49461;BME280;35355;49.198;-0.368;2023-04-30T04:44:57;101513.94;;;11.94;65.83
49461;BME280;35355;49.198;-0.368;2023-04-30T04:47:23;101511.19;;;11.94;65.54
49461;BME280;35355;49.198;-0.368;2023-04-30T04:49:48;101511.41;;;11.92;65.23
49461;BME280;35355;49.198;-0.368;2023-04-30T04:52:13;101519.41;;;11.94;65.39
49461;BME280;35355;49.198;-0.368;2023-04-30T04:54:39;101521.56;;;11.92;65.62
49461;BME280;35355;49.198;-0.368;2023-04-30T04:57:04;101516.91;;;11.92;65.42
49461;BME280;35355;49.198;-0.368;2023-04-30T04:59:29;101522.38;;;11.92;65.33
49461;BME280;35355;49.198;-0.368;2023-04-30T05:01:55;101513.94;;;11.94;65.40
49461;BME280;35355;49.198;-0.368;2023-04-30T05:04:20;101516.41;;;11.96;65.58
49461;BME280;35355;49.198;-0.368;2023-04-30T05:06:46;101517.84;;;11.98;65.48
49461;BME280;35355;49.198;-0.368;2023-04-30T05:09:11;101509.63;;;11.98;65.46
49461;BME280;35355;49.198;-0.368;2023-04-30T05:11:37;101516.50;;;12.01;65.81
49461;BME280;35355;49.198;-0.368;2023-04-30T05:14:02;101514.59;;;12.01;65.67
49461;BME280;35355;49.198;-0.368;2023-04-30T05:16:28;101516.25;;;12.02;65.87
49461;BME280;35355;49.198;-0.368;2023-04-30T05:18:53;101519.00;;;12.02;65.76
49461;BME280;35355;49.198;-0.368;2023-04-30T05:21:18;101522.88;;;12.06;65.49
49461;BME280;35355;49.198;-0.368;2023-04-30T05:23:44;101521.53;;;12.09;65.43
49461;BME280;35355;49.198;-0.368;2023-04-30T05:26:09;101521.06;;;12.12;65.72
49461;BME280;35355;49.198;-0.368;2023-04-30T05:28:35;101521.38;;;12.16;65.54
49461;BME280;35355;49.198;-0.368;2023-04-30T05:31:00;101527.13;;;12.19;65.53
49461;BME280;35355;49.198;-0.368;2023-04-30T05:33:26;101515.94;;;12.21;65.52
49461;BME280;35355;49.198;-0.368;2023-04-30T05:35:51;101528.38;;;12.28;65.60
49461;BME280;35355;49.198;-0.368;2023-04-30T05:38:16;101528.44;;;12.34;65.48
49461;BME280;35355;49.198;-0.368;2023-04-30T05:40:42;101532.88;;;12.40;65.53
49461;BME280;35355;49.198;-0.368;2023-04-30T05:43:07;101533.53;;;12.47;65.11
49461;BME280;35355;49.198;-0.368;2023-04-30T05:45:32;101527.63;;;12.55;64.83
49461;BME280;35355;49.198;-0.368;2023-04-30T05:47:58;101537.28;;;12.63;64.29
49461;BME280;35355;49.198;-0.368;2023-04-30T05:50:23;101540.09;;;12.68;65.10
49461;BME280;35355;49.198;-0.368;2023-04-30T05:52:48;101541.53;;;12.76;64.56
49461;BME280;35355;49.198;-0.368;2023-04-30T05:55:14;101544.91;;;12.83;64.47
49461;BME280;35355;49.198;-0.368;2023-04-30T05:57:39;101532.41;;;12.92;64.28
49461;BME280;35355;49.198;-0.368;2023-04-30T06:00:05;101526.69;;;12.99;64.03
49461;BME280;35355;49.198;-0.368;2023-04-30T06:02:31;101529.50;;;13.04;63.91
49461;BME280;35355;49.198;-0.368;2023-04-30T06:04:56;101534.22;;;13.09;64.03
49461;BME280;35355;49.198;-0.368;2023-04-30T06:07:22;101529.34;;;13.16;64.11
49461;BME280;35355;49.198;-0.368;2023-04-30T06:09:47;101530.78;;;13.24;64.28
49461;BME280;35355;49.198;-0.368;2023-04-30T06:12:13;101530.91;;;13.34;63.83
49461;BME280;35355;49.198;-0.368;2023-04-30T06:14:38;101536.22;;;13.46;63.64
49461;BME280;35355;49.198;-0.368;2023-04-30T06:17:04;101533.56;;;13.56;63.51
49461;BME280;35355;49.198;-0.368;2023-04-30T06:19:29;101538.84;;;13.63;63.21
49461;BME280;35355;49.198;-0.368;2023-04-30T06:21:54;101540.53;;;13.69;63.16
49461;BME280;35355;49.198;-0.368;2023-04-30T06:24:20;101532.03;;;13.76;63.13
49461;BME280;35355;49.198;-0.368;2023-04-30T06:26:45;101533.50;;;13.83;62.86
49461;BME280;35355;49.198;-0.368;2023-04-30T06:29:10;101546.16;;;13.95;62.63
49461;BME280;35355;49.198;-0.368;2023-04-30T06:31:36;101540.75;;;14.05;61.87
49461;BME280;35355;49.198;-0.368;2023-04-30T06:34:01;101536.97;;;14.16;62.40
49461;BME280;35355;49.198;-0.368;2023-04-30T06:36:26;101542.53;;;14.27;62.05
49461;BME280;35355;49.198;-0.368;2023-04-30T06:38:52;101540.63;;;14.37;61.73
49461;BME280;35355;49.198;-0.368;2023-04-30T06:41:17;101557.44;;;14.46;61.03
49461;BME280;35355;49.198;-0.368;2023-04-30T06:43:43;101554.72;;;14.51;61.14
49461;BME280;35355;49.198;-0.368;2023-04-30T06:46:09;101549.81;;;14.59;61.03
49461;BME280;35355;49.198;-0.368;2023-04-30T06:48:34;101559.22;;;14.68;60.95
49461;BME280;35355;49.198;-0.368;2023-04-30T06:51:00;101555.13;;;14.76;60.77
49461;BME280;35355;49.198;-0.368;2023-04-30T06:53:25;101558.97;;;14.80;60.66
49461;BME280;35355;49.198;-0.368;2023-04-30T06:55:50;101550.19;;;14.83;60.50
49461;BME280;35355;49.198;-0.368;2023-04-30T06:58:16;101557.06;;;14.85;60.25
49461;BME280;35355;49.198;-0.368;2023-04-30T07:00:43;101557.88;;;14.86;60.08
49461;BME280;35355;49.198;-0.368;2023-04-30T07:03:08;101557.88;;;14.86;60.06
49461;BME280;35355;49.198;-0.368;2023-04-30T07:05:33;101557.63;;;14.87;60.24
49461;BME280;35355;49.198;-0.368;2023-04-30T07:08:00;101552.13;;;14.87;60.00
49461;BME280;35355;49.198;-0.368;2023-04-30T07:10:26;101547.44;;;14.88;59.92
49461;BME280;35355;49.198;-0.368;2023-04-30T07:12:51;101554.88;;;14.87;59.98
49461;BME280;35355;49.198;-0.368;2023-04-30T07:15:17;101555.97;;;14.86;59.89
49461;BME280;35355;49.198;-0.368;2023-04-30T07:17:43;101559.28;;;14.88;59.90
49461;BME280;35355;49.198;-0.368;2023-04-30T07:20:08;101557.88;;;14.91;59.71
49461;BME280;35355;49.198;-0.368;2023-04-30T07:22:34;101553.78;;;14.94;59.53
49461;BME280;35355;49.198;-0.368;2023-04-30T07:24:59;101552.69;;;14.95;58.94
49461;BME280;35355;49.198;-0.368;2023-04-30T07:27:26;101551.59;;;14.96;59.52
49461;BME280;35355;49.198;-0.368;2023-04-30T07:29:52;101557.09;;;15.01;59.23
49461;BME280;35355;49.198;-0.368;2023-04-30T07:32:18;101554.63;;;14.99;59.09
49461;BME280;35355;49.198;-0.368;2023-04-30T07:34:44;101555.75;;;15.03;59.24
49461;BME280;35355;49.198;-0.368;2023-04-30T07:37:10;101546.13;;;15.06;59.00
49461;BME280;35355;49.198;-0.368;2023-04-30T07:39:35;101552.16;;;15.08;59.08
49461;BME280;35355;49.198;-0.368;2023-04-30T07:42:04;101549.41;;;15.08;59.08
49461;BME280;35355;49.198;-0.368;2023-04-30T07:44:30;101559.88;;;15.11;59.23
49461;BME280;35355;49.198;-0.368;2023-04-30T07:46:55;101557.16;;;15.16;59.15
49461;BME280;35355;49.198;-0.368;2023-04-30T07:49:21;101560.44;;;15.23;59.20
49461;BME280;35355;49.198;-0.368;2023-04-30T07:51:46;101551.38;;;15.28;58.92
49461;BME280;35355;49.198;-0.368;2023-04-30T07:54:12;101550.84;;;15.31;58.77
49461;BME280;35355;49.198;-0.368;2023-04-30T07:56:37;101554.94;;;15.34;58.84
49461;BME280;35355;49.198;-0.368;2023-04-30T07:59:03;101564.03;;;15.39;58.61
49461;BME280;35355;49.198;-0.368;2023-04-30T08:01:29;101565.69;;;15.40;58.65
49461;BME280;35355;49.198;-0.368;2023-04-30T08:03:54;101561.84;;;15.41;58.40
49461;BME280;35355;49.198;-0.368;2023-04-30T08:06:19;101561.84;;;15.41;58.40
49461;BME280;35355;49.198;-0.368;2023-04-30T08:08:45;101566.22;;;15.42;58.49
49461;BME280;35355;49.198;-0.368;2023-04-30T08:11:10;101570.66;;;15.49;58.50
49461;BME280;35355;49.198;-0.368;2023-04-30T08:13:36;101569.81;;;15.53;58.15
49461;BME280;35355;49.198;-0.368;2023-04-30T08:16:02;101559.91;;;15.52;58.02
49461;BME280;35355;49.198;-0.368;2023-04-30T08:18:28;101562.66;;;15.52;57.83
49461;BME280;35355;49.198;-0.368;2023-04-30T08:20:53;101557.16;;;15.52;58.14
49461;BME280;35355;49.198;-0.368;2023-04-30T08:23:19;101559.66;;;15.59;57.92
49461;BME280;35355;49.198;-0.368;2023-04-30T08:25:44;101559.34;;;15.66;57.88
49461;BME280;35355;49.198;-0.368;2023-04-30T08:28:10;101559.38;;;15.71;57.62
49461;BME280;35355;49.198;-0.368;2023-04-30T08:30:35;101557.16;;;15.78;57.38
49461;BME280;35355;49.198;-0.368;2023-04-30T08:33:00;101553.88;;;15.86;57.24
49461;BME280;35355;49.198;-0.368;2023-04-30T08:35:26;101551.38;;;15.90;56.90
49461;BME280;35355;49.198;-0.368;2023-04-30T08:37:53;101553.56;;;15.98;57.09
49461;BME280;35355;49.198;-0.368;2023-04-30T09:12:22;101542.56;;;16.74;56.29
49461;BME280;35355;49.198;-0.368;2023-04-30T09:15:04;101545.03;;;16.75;56.89
49461;BME280;35355;49.198;-0.368;2023-04-30T09:17:30;101543.06;;;16.81;55.66
49461;BME280;35355;49.198;-0.368;2023-04-30T09:22:31;101535.88;;;16.90;55.60
49461;BME280;35355;49.198;-0.368;2023-04-30T09:24:57;101546.25;;;17.04;55.50
